Liguori, Missouri
Current Conditions -  °F | °C
As of 11:53 AM on Friday 28 Nov 2014 (Local Time) from KCPS Reporting Station
Clear Clear  
Wind Chill: 37°   Ceiling: Unl
Heat Index: 44°   Visibility: 10mi
Dew Point: 32°   Wind: 15mph
Humidity: 63%   Direction: 180°S
Pressure: 30.09"   Gusts: 24mph
Location:  38.34°N, 90.4°W
Report Text: KCPS 281753Z 18013G21KT 10SM CLR 07/00 A3009 RMK AO2 SLP194 T00670000 10067 21039 58044
Loading
Personal Weather Stations






























Interactive Weather Map New forecast layout! Learn more

10-Day Weather Forecast

Advertisements
Track Severe Weather on mobile